sensor_id;sensor_type;location;lat;lon;timestamp;temperature;humidity
21662;DHT22;10992;48.170;8.596;2023-05-07T00:01:37;10.60;99.90
21662;DHT22;10992;48.170;8.596;2023-05-07T00:04:04;10.60;99.90
21662;DHT22;10992;48.170;8.596;2023-05-07T00:06:32;10.60;99.90
21662;DHT22;10992;48.170;8.596;2023-05-07T00:08:59;10.50;99.90
21662;DHT22;10992;48.170;8.596;2023-05-07T00:11:28;10.50;99.90
21662;DHT22;10992;48.170;8.596;2023-05-07T00:13:54;10.50;99.90
21662;DHT22;10992;48.170;8.596;2023-05-07T00:16:21;10.60;99.90
21662;DHT22;10992;48.170;8.596;2023-05-07T00:18:48;10.60;99.90
21662;DHT22;10992;48.170;8.596;2023-05-07T00:21:16;10.50;99.90
21662;DHT22;10992;48.170;8.596;2023-05-07T00:23:43;10.50;99.90
21662;DHT22;10992;48.170;8.596;2023-05-07T00:26:10;10.60;99.90
21662;DHT22;10992;48.170;8.596;2023-05-07T00:28:38;10.70;99.90
21662;DHT22;10992;48.170;8.596;2023-05-07T00:31:06;10.80;99.90
21662;DHT22;10992;48.170;8.596;2023-05-07T00:33:32;10.80;99.90
21662;DHT22;10992;48.170;8.596;2023-05-07T00:35:59;10.80;99.90
21662;DHT22;10992;48.170;8.596;2023-05-07T00:38:28;10.70;99.90
21662;DHT22;10992;48.170;8.596;2023-05-07T00:40:55;10.70;99.90
21662;DHT22;10992;48.170;8.596;2023-05-07T00:43:22;10.70;99.90
21662;DHT22;10992;48.170;8.596;2023-05-07T00:45:49;10.60;99.90
21662;DHT22;10992;48.170;8.596;2023-05-07T00:48:17;10.60;99.90
21662;DHT22;10992;48.170;8.596;2023-05-07T00:50:44;10.50;99.90
21662;DHT22;10992;48.170;8.596;2023-05-07T00:53:12;10.50;99.90
21662;DHT22;10992;48.170;8.596;2023-05-07T00:55:39;10.40;99.90
21662;DHT22;10992;48.170;8.596;2023-05-07T00:58:06;10.40;99.90
21662;DHT22;10992;48.170;8.596;2023-05-07T01:00:33;10.30;99.90
21662;DHT22;10992;48.170;8.596;2023-05-07T01:03:00;10.40;99.90
21662;DHT22;10992;48.170;8.596;2023-05-07T01:05:28;10.40;99.90
21662;DHT22;10992;48.170;8.596;2023-05-07T01:07:57;10.50;99.90
21662;DHT22;10992;48.170;8.596;2023-05-07T01:10:24;10.50;99.90
21662;DHT22;10992;48.170;8.596;2023-05-07T01:12:54;10.40;99.90
21662;DHT22;10992;48.170;8.596;2023-05-07T01:15:21;10.40;99.90
21662;DHT22;10992;48.170;8.596;2023-05-07T01:17:47;10.40;99.90
21662;DHT22;10992;48.170;8.596;2023-05-07T01:20:22;10.40;99.90
21662;DHT22;10992;48.170;8.596;2023-05-07T01:22:51;10.40;99.90
21662;DHT22;10992;48.170;8.596;2023-05-07T01:25:19;10.40;99.90
21662;DHT22;10992;48.170;8.596;2023-05-07T01:27:50;10.40;99.90
21662;DHT22;10992;48.170;8.596;2023-05-07T01:30:20;10.40;99.90
21662;DHT22;10992;48.170;8.596;2023-05-07T01:32:52;10.40;99.90
21662;DHT22;10992;48.170;8.596;2023-05-07T01:35:22;10.40;99.90
21662;DHT22;10992;48.170;8.596;2023-05-07T01:37:49;10.40;99.90
21662;DHT22;10992;48.170;8.596;2023-05-07T01:40:17;10.50;99.90
21662;DHT22;10992;48.170;8.596;2023-05-07T01:42:44;10.60;99.90
21662;DHT22;10992;48.170;8.596;2023-05-07T01:45:12;10.60;99.90
21662;DHT22;10992;48.170;8.596;2023-05-07T01:47:39;10.50;99.90
21662;DHT22;10992;48.170;8.596;2023-05-07T01:50:07;10.30;99.90
21662;DHT22;10992;48.170;8.596;2023-05-07T01:52:38;10.30;99.90
21662;DHT22;10992;48.170;8.596;2023-05-07T01:55:06;10.20;99.90
21662;DHT22;10992;48.170;8.596;2023-05-07T01:57:33;10.10;99.90
21662;DHT22;10992;48.170;8.596;2023-05-07T02:00:00;10.00;99.90
21662;DHT22;10992;48.170;8.596;2023-05-07T02:02:26;10.00;99.90
21662;DHT22;10992;48.170;8.596;2023-05-07T02:04:56;10.00;99.90
21662;DHT22;10992;48.170;8.596;2023-05-07T02:07:24;10.00;99.90
21662;DHT22;10992;48.170;8.596;2023-05-07T02:09:52;10.00;99.90
21662;DHT22;10992;48.170;8.596;2023-05-07T02:12:18;9.90;99.90
21662;DHT22;10992;48.170;8.596;2023-05-07T02:14:46;9.90;99.90
21662;DHT22;10992;48.170;8.596;2023-05-07T02:17:13;9.90;99.90
21662;DHT22;10992;48.170;8.596;2023-05-07T02:19:40;9.80;99.90
21662;DHT22;10992;48.170;8.596;2023-05-07T02:22:11;9.80;99.90
21662;DHT22;10992;48.170;8.596;2023-05-07T02:24:38;9.80;99.90
21662;DHT22;10992;48.170;8.596;2023-05-07T02:27:05;9.70;99.90
21662;DHT22;10992;48.170;8.596;2023-05-07T02:29:32;9.70;99.90
21662;DHT22;10992;48.170;8.596;2023-05-07T02:31:59;9.60;99.90
21662;DHT22;10992;48.170;8.596;2023-05-07T02:34:26;9.50;99.90
21662;DHT22;10992;48.170;8.596;2023-05-07T02:36:53;9.50;99.90
21662;DHT22;10992;48.170;8.596;2023-05-07T02:39:23;9.40;99.90
21662;DHT22;10992;48.170;8.596;2023-05-07T02:41:50;9.30;99.90
21662;DHT22;10992;48.170;8.596;2023-05-07T02:44:17;9.30;99.90
21662;DHT22;10992;48.170;8.596;2023-05-07T02:46:48;9.30;99.90
21662;DHT22;10992;48.170;8.596;2023-05-07T02:49:15;9.20;99.90
21662;DHT22;10992;48.170;8.596;2023-05-07T02:51:42;9.20;99.90
21662;DHT22;10992;48.170;8.596;2023-05-07T02:54:16;9.20;99.90
21662;DHT22;10992;48.170;8.596;2023-05-07T02:56:44;9.10;99.90
21662;DHT22;10992;48.170;8.596;2023-05-07T02:59:11;9.10;99.90
21662;DHT22;10992;48.170;8.596;2023-05-07T03:01:40;9.10;99.90
21662;DHT22;10992;48.170;8.596;2023-05-07T03:04:11;9.20;99.90
21662;DHT22;10992;48.170;8.596;2023-05-07T03:06:38;9.20;99.90
21662;DHT22;10992;48.170;8.596;2023-05-07T03:09:05;9.10;99.90
21662;DHT22;10992;48.170;8.596;2023-05-07T03:11:32;9.10;99.90
21662;DHT22;10992;48.170;8.596;2023-05-07T03:13:59;9.00;99.90
21662;DHT22;10992;48.170;8.596;2023-05-07T03:16:26;8.90;99.90
21662;DHT22;10992;48.170;8.596;2023-05-07T03:18:53;8.90;99.90
21662;DHT22;10992;48.170;8.596;2023-05-07T03:21:20;8.90;99.90
21662;DHT22;10992;48.170;8.596;2023-05-07T03:23:47;9.10;99.90
21662;DHT22;10992;48.170;8.596;2023-05-07T03:26:14;9.00;99.90
21662;DHT22;10992;48.170;8.596;2023-05-07T03:28:43;8.90;99.90
21662;DHT22;10992;48.170;8.596;2023-05-07T03:31:13;9.10;99.90
21662;DHT22;10992;48.170;8.596;2023-05-07T03:33:52;9.10;99.90
21662;DHT22;10992;48.170;8.596;2023-05-07T03:36:19;9.00;99.90
21662;DHT22;10992;48.170;8.596;2023-05-07T03:38:47;9.10;99.90
21662;DHT22;10992;48.170;8.596;2023-05-07T03:41:18;9.00;99.90
21662;DHT22;10992;48.170;8.596;2023-05-07T03:43:45;8.90;99.90
21662;DHT22;10992;48.170;8.596;2023-05-07T03:46:13;8.80;99.90
21662;DHT22;10992;48.170;8.596;2023-05-07T03:48:41;8.70;99.90
21662;DHT22;10992;48.170;8.596;2023-05-07T03:51:09;8.60;99.90
21662;DHT22;10992;48.170;8.596;2023-05-07T03:53:36;8.50;99.90
21662;DHT22;10992;48.170;8.596;2023-05-07T03:56:03;8.50;99.90
21662;DHT22;10992;48.170;8.596;2023-05-07T03:58:34;8.50;99.90
21662;DHT22;10992;48.170;8.596;2023-05-07T04:01:06;8.50;99.90
21662;DHT22;10992;48.170;8.596;2023-05-07T04:03:34;8.60;99.90
21662;DHT22;10992;48.170;8.596;2023-05-07T04:06:02;8.70;99.90
21662;DHT22;10992;48.170;8.596;2023-05-07T04:08:32;8.80;99.90
21662;DHT22;10992;48.170;8.596;2023-05-07T04:10:59;9.00;99.90
21662;DHT22;10992;48.170;8.596;2023-05-07T04:13:30;9.10;99.90
21662;DHT22;10992;48.170;8.596;2023-05-07T04:16:01;9.10;99.90
21662;DHT22;10992;48.170;8.596;2023-05-07T04:18:28;9.20;99.90
21662;DHT22;10992;48.170;8.596;2023-05-07T04:20:56;9.30;99.90
21662;DHT22;10992;48.170;8.596;2023-05-07T04:23:23;9.40;99.90
21662;DHT22;10992;48.170;8.596;2023-05-07T04:25:50;9.60;99.90
21662;DHT22;10992;48.170;8.596;2023-05-07T04:28:24;9.70;99.90
21662;DHT22;10992;48.170;8.596;2023-05-07T04:30:51;9.80;99.90
21662;DHT22;10992;48.170;8.596;2023-05-07T04:33:19;9.90;99.90
21662;DHT22;10992;48.170;8.596;2023-05-07T04:35:48;10.00;99.90
21662;DHT22;10992;48.170;8.596;2023-05-07T04:38:15;10.10;99.90
21662;DHT22;10992;48.170;8.596;2023-05-07T04:40:44;10.20;99.90
21662;DHT22;10992;48.170;8.596;2023-05-07T04:43:14;10.30;99.90
21662;DHT22;10992;48.170;8.596;2023-05-07T04:45:47;10.40;99.90
21662;DHT22;10992;48.170;8.596;2023-05-07T04:48:16;10.50;99.90
21662;DHT22;10992;48.170;8.596;2023-05-07T04:50:49;10.60;99.90
21662;DHT22;10992;48.170;8.596;2023-05-07T04:53:18;10.60;99.90
21662;DHT22;10992;48.170;8.596;2023-05-07T04:55:47;10.70;99.90
21662;DHT22;10992;48.170;8.596;2023-05-07T04:58:14;10.80;99.90
21662;DHT22;10992;48.170;8.596;2023-05-07T05:00:44;10.80;99.90
21662;DHT22;10992;48.170;8.596;2023-05-07T05:03:11;11.00;99.90
21662;DHT22;10992;48.170;8.596;2023-05-07T05:05:39;11.20;99.90
21662;DHT22;10992;48.170;8.596;2023-05-07T05:08:07;12.10;99.90
21662;DHT22;10992;48.170;8.596;2023-05-07T05:10:37;13.50;99.90
21662;DHT22;10992;48.170;8.596;2023-05-07T05:13:06;14.10;99.90
21662;DHT22;10992;48.170;8.596;2023-05-07T05:15:34;13.90;99.90
21662;DHT22;10992;48.170;8.596;2023-05-07T05:18:02;13.50;99.90
21662;DHT22;10992;48.170;8.596;2023-05-07T05:20:30;13.60;99.90
21662;DHT22;10992;48.170;8.596;2023-05-07T05:22:57;15.00;99.90
21662;DHT22;10992;48.170;8.596;2023-05-07T05:25:24;16.90;99.90
21662;DHT22;10992;48.170;8.596;2023-05-07T05:27:51;18.20;99.90
21662;DHT22;10992;48.170;8.596;2023-05-07T05:30:18;19.00;99.90
21662;DHT22;10992;48.170;8.596;2023-05-07T05:32:47;19.50;99.90
21662;DHT22;10992;48.170;8.596;2023-05-07T05:35:14;21.10;99.90
21662;DHT22;10992;48.170;8.596;2023-05-07T05:37:42;21.60;99.90
21662;DHT22;10992;48.170;8.596;2023-05-07T05:40:10;21.90;99.90
21662;DHT22;10992;48.170;8.596;2023-05-07T05:42:37;23.30;99.90
21662;DHT22;10992;48.170;8.596;2023-05-07T05:45:06;23.50;99.90
21662;DHT22;10992;48.170;8.596;2023-05-07T05:47:34;23.80;99.90
21662;DHT22;10992;48.170;8.596;2023-05-07T05:50:01;22.30;99.90
21662;DHT22;10992;48.170;8.596;2023-05-07T05:52:28;20.60;99.90
21662;DHT22;10992;48.170;8.596;2023-05-07T05:54:56;18.70;99.90
21662;DHT22;10992;48.170;8.596;2023-05-07T05:57:24;18.30;99.90
21662;DHT22;10992;48.170;8.596;2023-05-07T05:59:54;18.10;99.90
21662;DHT22;10992;48.170;8.596;2023-05-07T06:02:24;18.20;99.90
21662;DHT22;10992;48.170;8.596;2023-05-07T06:04:52;18.40;99.90
21662;DHT22;10992;48.170;8.596;2023-05-07T06:07:21;18.00;99.90
21662;DHT22;10992;48.170;8.596;2023-05-07T06:09:49;17.20;99.90
21662;DHT22;10992;48.170;8.596;2023-05-07T06:12:16;16.40;99.90
21662;DHT22;10992;48.170;8.596;2023-05-07T06:14:44;15.90;99.90
21662;DHT22;10992;48.170;8.596;2023-05-07T06:17:13;15.70;99.90
21662;DHT22;10992;48.170;8.596;2023-05-07T06:19:40;16.30;99.90
21662;DHT22;10992;48.170;8.596;2023-05-07T06:22:08;16.30;99.90
21662;DHT22;10992;48.170;8.596;2023-05-07T06:24:35;17.00;99.90
21662;DHT22;10992;48.170;8.596;2023-05-07T06:27:04;17.20;99.90
21662;DHT22;10992;48.170;8.596;2023-05-07T06:29:32;17.10;99.90
21662;DHT22;10992;48.170;8.596;2023-05-07T06:32:09;16.90;99.90
21662;DHT22;10992;48.170;8.596;2023-05-07T06:34:39;16.70;99.90
21662;DHT22;10992;48.170;8.596;2023-05-07T06:37:07;17.60;99.90
21662;DHT22;10992;48.170;8.596;2023-05-07T06:39:46;17.70;99.90
21662;DHT22;10992;48.170;8.596;2023-05-07T06:42:13;18.40;99.90
21662;DHT22;10992;48.170;8.596;2023-05-07T06:44:42;19.10;99.90
21662;DHT22;10992;48.170;8.596;2023-05-07T06:47:12;18.80;99.90
21662;DHT22;10992;48.170;8.596;2023-05-07T06:49:43;18.60;99.90
21662;DHT22;10992;48.170;8.596;2023-05-07T06:52:16;18.30;99.90
21662;DHT22;10992;48.170;8.596;2023-05-07T06:54:45;17.30;99.90
21662;DHT22;10992;48.170;8.596;2023-05-07T06:57:15;16.90;99.90
21662;DHT22;10992;48.170;8.596;2023-05-07T06:59:41;17.00;99.90
21662;DHT22;10992;48.170;8.596;2023-05-07T07:02:12;17.40;99.90
21662;DHT22;10992;48.170;8.596;2023-05-07T07:04:39;18.90;99.90
21662;DHT22;10992;48.170;8.596;2023-05-07T07:07:09;20.50;99.90
21662;DHT22;10992;48.170;8.596;2023-05-07T07:09:36;22.30;99.90
21662;DHT22;10992;48.170;8.596;2023-05-07T07:12:05;23.50;99.90
21662;DHT22;10992;48.170;8.596;2023-05-07T07:14:35;24.50;99.90
21662;DHT22;10992;48.170;8.596;2023-05-07T07:17:03;24.90;99.90
21662;DHT22;10992;48.170;8.596;2023-05-07T07:19:32;25.10;99.90
21662;DHT22;10992;48.170;8.596;2023-05-07T07:22:01;23.70;99.90
21662;DHT22;10992;48.170;8.596;2023-05-07T07:24:28;22.90;99.90
21662;DHT22;10992;48.170;8.596;2023-05-07T07:27:02;21.90;99.90
21662;DHT22;10992;48.170;8.596;2023-05-07T07:29:30;20.70;99.90
21662;DHT22;10992;48.170;8.596;2023-05-07T07:31:57;20.30;99.90
21662;DHT22;10992;48.170;8.596;2023-05-07T07:34:24;21.10;99.90
21662;DHT22;10992;48.170;8.596;2023-05-07T07:36:51;23.40;99.90
21662;DHT22;10992;48.170;8.596;2023-05-07T07:39:19;23.50;99.90
21662;DHT22;10992;48.170;8.596;2023-05-07T07:41:49;23.50;99.90
21662;DHT22;10992;48.170;8.596;2023-05-07T07:44:17;24.50;99.90
21662;DHT22;10992;48.170;8.596;2023-05-07T07:46:49;24.70;99.90
21662;DHT22;10992;48.170;8.596;2023-05-07T07:49:19;23.70;99.90
21662;DHT22;10992;48.170;8.596;2023-05-07T07:51:46;24.10;99.90
21662;DHT22;10992;48.170;8.596;2023-05-07T07:54:15;23.40;99.90
21662;DHT22;10992;48.170;8.596;2023-05-07T07:56:42;22.40;99.90
21662;DHT22;10992;48.170;8.596;2023-05-07T07:59:13;22.20;99.90
21662;DHT22;10992;48.170;8.596;2023-05-07T08:01:45;22.30;99.90
21662;DHT22;10992;48.170;8.596;2023-05-07T08:04:12;22.70;99.90
21662;DHT22;10992;48.170;8.596;2023-05-07T08:06:41;22.50;99.90
21662;DHT22;10992;48.170;8.596;2023-05-07T08:09:09;23.00;99.90
21662;DHT22;10992;48.170;8.596;2023-05-07T08:11:39;24.20;99.90
21662;DHT22;10992;48.170;8.596;2023-05-07T08:14:06;24.00;99.90
21662;DHT22;10992;48.170;8.596;2023-05-07T08:16:33;24.90;99.90
21662;DHT22;10992;48.170;8.596;2023-05-07T08:19:01;25.20;99.90
21662;DHT22;10992;48.170;8.596;2023-05-07T08:21:28;25.80;99.90
21662;DHT22;10992;48.170;8.596;2023-05-07T08:23:55;24.90;99.90
21662;DHT22;10992;48.170;8.596;2023-05-07T08:26:22;25.20;99.90
21662;DHT22;10992;48.170;8.596;2023-05-07T08:28:49;23.40;99.90
21662;DHT22;10992;48.170;8.596;2023-05-07T08:31:18;23.70;99.90
21662;DHT22;10992;48.170;8.596;2023-05-07T08:33:46;23.70;99.90
21662;DHT22;10992;48.170;8.596;2023-05-07T08:36:13;23.50;99.90
21662;DHT22;10992;48.170;8.596;2023-05-07T08:38:40;23.70;99.90
21662;DHT22;10992;48.170;8.596;2023-05-07T08:41:12;24.00;99.90
21662;DHT22;10992;48.170;8.596;2023-05-07T08:43:47;24.30;99.90
21662;DHT22;10992;48.170;8.596;2023-05-07T08:46:17;24.10;99.90
21662;DHT22;10992;48.170;8.596;2023-05-07T08:48:50;23.00;99.90
21662;DHT22;10992;48.170;8.596;2023-05-07T08:51:19;22.60;99.90
21662;DHT22;10992;48.170;8.596;2023-05-07T08:53:49;22.80;99.90
21662;DHT22;10992;48.170;8.596;2023-05-07T08:56:22;21.80;99.90
21662;DHT22;10992;48.170;8.596;2023-05-07T08:58:51;21.70;99.90
21662;DHT22;10992;48.170;8.596;2023-05-07T09:01:24;22.20;99.90
21662;DHT22;10992;48.170;8.596;2023-05-07T09:03:52;23.00;99.90
21662;DHT22;10992;48.170;8.596;2023-05-07T09:06:21;23.70;99.90
21662;DHT22;10992;48.170;8.596;2023-05-07T09:08:52;24.70;99.90
21662;DHT22;10992;48.170;8.596;2023-05-07T09:11:22;24.50;99.90
21662;DHT22;10992;48.170;8.596;2023-05-07T09:13:55;24.70;99.90
21662;DHT22;10992;48.170;8.596;2023-05-07T09:16:25;25.70;99.90
21662;DHT22;10992;48.170;8.596;2023-05-07T09:18:54;24.90;99.90
21662;DHT22;10992;48.170;8.596;2023-05-07T09:21:22;25.20;99.90
21662;DHT22;10992;48.170;8.596;2023-05-07T09:23:54;24.90;99.90
21662;DHT22;10992;48.170;8.596;2023-05-07T09:26:25;25.40;99.90
21662;DHT22;10992;48.170;8.596;2023-05-07T09:28:55;26.20;99.90
21662;DHT22;10992;48.170;8.596;2023-05-07T09:31:22;26.00;99.90
21662;DHT22;10992;48.170;8.596;2023-05-07T09:33:52;25.70;99.90
21662;DHT22;10992;48.170;8.596;2023-05-07T09:36:19;25.60;99.90
21662;DHT22;10992;48.170;8.596;2023-05-07T09:38:48;25.20;99.90
21662;DHT22;10992;48.170;8.596;2023-05-07T09:41:18;25.10;99.90
21662;DHT22;10992;48.170;8.596;2023-05-07T09:43:54;25.10;99.90
21662;DHT22;10992;48.170;8.596;2023-05-07T09:46:30;26.20;99.90
21662;DHT22;10992;48.170;8.596;2023-05-07T09:49:03;26.50;99.90
21662;DHT22;10992;48.170;8.596;2023-05-07T09:51:41;26.00;99.90
21662;DHT22;10992;48.170;8.596;2023-05-07T09:54:12;25.40;99.90
21662;DHT22;10992;48.170;8.596;2023-05-07T09:56:44;25.40;99.90
21662;DHT22;10992;48.170;8.596;2023-05-07T09:59:14;25.20;99.90
21662;DHT22;10992;48.170;8.596;2023-05-07T10:01:43;25.30;99.90
21662;DHT22;10992;48.170;8.596;2023-05-07T10:04:12;24.80;99.90
21662;DHT22;10992;48.170;8.596;2023-05-07T10:06:42;24.70;99.90
21662;DHT22;10992;48.170;8.596;2023-05-07T10:09:10;24.50;99.90
21662;DHT22;10992;48.170;8.596;2023-05-07T10:11:38;24.40;99.90
21662;DHT22;10992;48.170;8.596;2023-05-07T10:14:06;24.20;99.90
21662;DHT22;10992;48.170;8.596;2023-05-07T10:16:35;24.20;99.90
21662;DHT22;10992;48.170;8.596;2023-05-07T10:19:09;23.70;99.90
21662;DHT22;10992;48.170;8.596;2023-05-07T10:21:50;23.30;99.90
21662;DHT22;10992;48.170;8.596;2023-05-07T10:24:26;23.00;99.90
21662;DHT22;10992;48.170;8.596;2023-05-07T10:26:57;23.30;99.90
21662;DHT22;10992;48.170;8.596;2023-05-07T10:32:47;25.10;99.90
21662;DHT22;10992;48.170;8.596;2023-05-07T10:35:29;25.40;99.90
21662;DHT22;10992;48.170;8.596;2023-05-07T10:38:00;25.70;99.90
21662;DHT22;10992;48.170;8.596;2023-05-07T10:40:30;26.00;99.90
21662;DHT22;10992;48.170;8.596;2023-05-07T10:43:03;24.40;99.90
21662;DHT22;10992;48.170;8.596;2023-05-07T10:46:27;24.10;99.90
21662;DHT22;10992;48.170;8.596;2023-05-07T10:51:39;22.70;99.90
21662;DHT22;10992;48.170;8.596;2023-05-07T10:54:22;22.60;99.90
21662;DHT22;10992;48.170;8.596;2023-05-07T10:57:35;23.00;99.90
21662;DHT22;10992;48.170;8.596;2023-05-07T11:03:07;23.30;99.90
21662;DHT22;10992;48.170;8.596;2023-05-07T11:05:47;23.00;99.90
21662;DHT22;10992;48.170;8.596;2023-05-07T11:08:24;22.50;99.90
21662;DHT22;10992;48.170;8.596;2023-05-07T11:11:03;22.10;99.90
21662;DHT22;10992;48.170;8.596;2023-05-07T11:13:44;21.80;99.90
21662;DHT22;10992;48.170;8.596;2023-05-07T11:16:34;21.50;99.90
21662;DHT22;10992;48.170;8.596;2023-05-07T11:19:12;21.30;99.90
21662;DHT22;10992;48.170;8.596;2023-05-07T11:21:43;20.80;99.90
21662;DHT22;10992;48.170;8.596;2023-05-07T11:24:24;20.50;99.90
21662;DHT22;10992;48.170;8.596;2023-05-07T11:27:02;20.20;99.90
21662;DHT22;10992;48.170;8.596;2023-05-07T11:29:31;19.90;99.90
21662;DHT22;10992;48.170;8.596;2023-05-07T11:32:04;19.60;99.90
21662;DHT22;10992;48.170;8.596;2023-05-07T11:34:39;19.40;99.90
21662;DHT22;10992;48.170;8.596;2023-05-07T11:37:06;19.20;99.90
21662;DHT22;10992;48.170;8.596;2023-05-07T11:39:41;19.00;99.90
21662;DHT22;10992;48.170;8.596;2023-05-07T11:42:28;18.70;99.90
21662;DHT22;10992;48.170;8.596;2023-05-07T11:44:55;18.20;99.90
21662;DHT22;10992;48.170;8.596;2023-05-07T11:47:22;17.90;99.90
21662;DHT22;10992;48.170;8.596;2023-05-07T11:49:54;17.60;99.90
21662;DHT22;10992;48.170;8.596;2023-05-07T11:52:23;17.40;99.90
21662;DHT22;10992;48.170;8.596;2023-05-07T11:54:54;17.10;99.90
21662;DHT22;10992;48.170;8.596;2023-05-07T11:57:24;16.80;99.90
21662;DHT22;10992;48.170;8.596;2023-05-07T11:59:59;16.50;99.90
21662;DHT22;10992;48.170;8.596;2023-05-07T12:02:26;16.10;99.90
21662;DHT22;10992;48.170;8.596;2023-05-07T12:04:54;15.80;99.90
21662;DHT22;10992;48.170;8.596;2023-05-07T12:07:23;15.50;99.90
21662;DHT22;10992;48.170;8.596;2023-05-07T12:09:52;15.40;99.90
21662;DHT22;10992;48.170;8.596;2023-05-07T12:12:19;15.40;99.90
21662;DHT22;10992;48.170;8.596;2023-05-07T12:14:46;15.30;99.90
21662;DHT22;10992;48.170;8.596;2023-05-07T12:17:14;15.30;99.90
21662;DHT22;10992;48.170;8.596;2023-05-07T12:19:43;15.20;99.90
21662;DHT22;10992;48.170;8.596;2023-05-07T12:22:12;15.20;99.90
21662;DHT22;10992;48.170;8.596;2023-05-07T12:24:55;15.20;99.90
21662;DHT22;10992;48.170;8.596;2023-05-07T12:27:23;15.10;99.90
21662;DHT22;10992;48.170;8.596;2023-05-07T12:29:50;15.00;99.90
21662;DHT22;10992;48.170;8.596;2023-05-07T12:32:19;14.90;99.90
21662;DHT22;10992;48.170;8.596;2023-05-07T12:34:49;14.70;99.90
21662;DHT22;10992;48.170;8.596;2023-05-07T12:37:24;14.70;99.90
21662;DHT22;10992;48.170;8.596;2023-05-07T12:40:10;14.70;99.90
21662;DHT22;10992;48.170;8.596;2023-05-07T12:42:39;14.80;99.90
21662;DHT22;10992;48.170;8.596;2023-05-07T12:45:10;14.90;99.90
21662;DHT22;10992;48.170;8.596;2023-05-07T12:47:38;14.80;99.90
21662;DHT22;10992;48.170;8.596;2023-05-07T12:50:06;14.40;99.90
21662;DHT22;10992;48.170;8.596;2023-05-07T12:52:34;14.30;99.90
21662;DHT22;10992;48.170;8.596;2023-05-07T12:55:08;14.20;99.90
21662;DHT22;10992;48.170;8.596;2023-05-07T12:57:39;14.20;99.90
21662;DHT22;10992;48.170;8.596;2023-05-07T13:00:07;14.10;99.90
21662;DHT22;10992;48.170;8.596;2023-05-07T13:02:39;14.00;99.90
21662;DHT22;10992;48.170;8.596;2023-05-07T13:05:07;13.90;99.90
21662;DHT22;10992;48.170;8.596;2023-05-07T13:07:36;13.80;99.90
21662;DHT22;10992;48.170;8.596;2023-05-07T13:10:04;13.80;99.90
21662;DHT22;10992;48.170;8.596;2023-05-07T13:12:31;13.80;99.90
21662;DHT22;10992;48.170;8.596;2023-05-07T13:14:58;13.80;99.90
21662;DHT22;10992;48.170;8.596;2023-05-07T13:17:25;13.90;99.90
21662;DHT22;10992;48.170;8.596;2023-05-07T13:19:53;14.00;99.90
21662;DHT22;10992;48.170;8.596;2023-05-07T13:22:20;14.00;99.90
21662;DHT22;10992;48.170;8.596;2023-05-07T13:24:46;14.20;99.90
21662;DHT22;10992;48.170;8.596;2023-05-07T13:27:13;14.40;99.90
21662;DHT22;10992;48.170;8.596;2023-05-07T13:29:40;14.70;99.90
21662;DHT22;10992;48.170;8.596;2023-05-07T13:32:07;15.10;99.90
21662;DHT22;10992;48.170;8.596;2023-05-07T13:34:34;15.50;99.90
21662;DHT22;10992;48.170;8.596;2023-05-07T13:37:02;16.10;99.90
21662;DHT22;10992;48.170;8.596;2023-05-07T13:39:28;16.50;99.90
21662;DHT22;10992;48.170;8.596;2023-05-07T13:41:55;17.30;99.90
21662;DHT22;10992;48.170;8.596;2023-05-07T13:44:22;17.70;99.90
21662;DHT22;10992;48.170;8.596;2023-05-07T13:46:49;18.60;99.90
21662;DHT22;10992;48.170;8.596;2023-05-07T13:49:16;18.90;99.90
21662;DHT22;10992;48.170;8.596;2023-05-07T13:51:43;19.30;99.90
21662;DHT22;10992;48.170;8.596;2023-05-07T13:54:10;19.50;99.90
21662;DHT22;10992;48.170;8.596;2023-05-07T13:56:37;19.20;99.90
21662;DHT22;10992;48.170;8.596;2023-05-07T13:59:04;19.00;99.90
21662;DHT22;10992;48.170;8.596;2023-05-07T14:01:31;19.30;99.90
21662;DHT22;10992;48.170;8.596;2023-05-07T14:03:58;19.00;99.90
21662;DHT22;10992;48.170;8.596;2023-05-07T14:06:26;19.20;99.90
21662;DHT22;10992;48.170;8.596;2023-05-07T14:08:53;19.40;99.90
21662;DHT22;10992;48.170;8.596;2023-05-07T14:11:20;18.70;99.90
21662;DHT22;10992;48.170;8.596;2023-05-07T14:13:47;18.60;99.90
21662;DHT22;10992;48.170;8.596;2023-05-07T14:16:14;18.50;99.90
21662;DHT22;10992;48.170;8.596;2023-05-07T14:18:41;18.30;99.90
21662;DHT22;10992;48.170;8.596;2023-05-07T14:21:08;17.80;99.90
21662;DHT22;10992;48.170;8.596;2023-05-07T14:23:36;17.50;99.90
21662;DHT22;10992;48.170;8.596;2023-05-07T14:26:03;17.20;99.90
21662;DHT22;10992;48.170;8.596;2023-05-07T14:28:30;17.40;99.90
21662;DHT22;10992;48.170;8.596;2023-05-07T14:30:57;17.30;99.90
21662;DHT22;10992;48.170;8.596;2023-05-07T14:33:24;17.30;99.90
21662;DHT22;10992;48.170;8.596;2023-05-07T14:35:51;17.10;99.90
21662;DHT22;10992;48.170;8.596;2023-05-07T14:38:19;17.00;99.90
21662;DHT22;10992;48.170;8.596;2023-05-07T14:40:46;17.20;99.90
21662;DHT22;10992;48.170;8.596;2023-05-07T14:43:13;17.10;99.90
21662;DHT22;10992;48.170;8.596;2023-05-07T14:45:40;17.50;99.90
21662;DHT22;10992;48.170;8.596;2023-05-07T14:48:07;17.70;99.90
21662;DHT22;10992;48.170;8.596;2023-05-07T14:50:36;17.70;99.90
21662;DHT22;10992;48.170;8.596;2023-05-07T14:53:02;17.70;99.90
21662;DHT22;10992;48.170;8.596;2023-05-07T14:55:30;17.70;99.90
21662;DHT22;10992;48.170;8.596;2023-05-07T14:58:00;17.60;99.90
21662;DHT22;10992;48.170;8.596;2023-05-07T15:00:28;17.40;99.90
21662;DHT22;10992;48.170;8.596;2023-05-07T15:02:59;17.40;99.90
21662;DHT22;10992;48.170;8.596;2023-05-07T15:05:28;17.30;99.90
21662;DHT22;10992;48.170;8.596;2023-05-07T15:07:55;17.20;99.90
21662;DHT22;10992;48.170;8.596;2023-05-07T15:10:23;17.10;99.90
21662;DHT22;10992;48.170;8.596;2023-05-07T15:12:50;17.20;99.90
21662;DHT22;10992;48.170;8.596;2023-05-07T15:15:17;17.20;99.90
21662;DHT22;10992;48.170;8.596;2023-05-07T15:17:44;17.30;99.90
21662;DHT22;10992;48.170;8.596;2023-05-07T15:20:11;17.10;99.90
21662;DHT22;10992;48.170;8.596;2023-05-07T15:22:38;16.90;99.90
21662;DHT22;10992;48.170;8.596;2023-05-07T15:25:05;16.90;99.90
21662;DHT22;10992;48.170;8.596;2023-05-07T15:27:33;17.00;99.90
21662;DHT22;10992;48.170;8.596;2023-05-07T15:29:59;17.10;99.90
21662;DHT22;10992;48.170;8.596;2023-05-07T15:32:26;17.20;99.90
21662;DHT22;10992;48.170;8.596;2023-05-07T15:34:54;17.20;99.90
21662;DHT22;10992;48.170;8.596;2023-05-07T15:37:20;17.10;99.90
21662;DHT22;10992;48.170;8.596;2023-05-07T15:39:50;17.10;99.90
21662;DHT22;10992;48.170;8.596;2023-05-07T15:42:17;17.10;99.90
21662;DHT22;10992;48.170;8.596;2023-05-07T15:44:44;17.10;99.90
21662;DHT22;10992;48.170;8.596;2023-05-07T15:47:12;17.10;99.90
21662;DHT22;10992;48.170;8.596;2023-05-07T15:49:41;17.10;99.90
21662;DHT22;10992;48.170;8.596;2023-05-07T15:52:08;17.40;99.90
21662;DHT22;10992;48.170;8.596;2023-05-07T15:54:40;17.50;99.90